sensor_id;sensor_type;location;lat;lon;timestamp;pressure;altitude;pressure_sealevel;temperature;humidity
71194;BME280;58903;47.210;8.618;2023-05-25T00:00:12;94284.59;;;26.36;44.91
71194;BME280;58903;47.210;8.618;2023-05-25T00:02:47;94285.88;;;26.35;44.40
71194;BME280;58903;47.210;8.618;2023-05-25T00:05:28;94283.13;;;26.35;44.21
71194;BME280;58903;47.210;8.618;2023-05-25T00:08:04;94279.63;;;26.35;45.00
71194;BME280;58903;47.210;8.618;2023-05-25T00:10:30;94278.84;;;26.34;44.98
71194;BME280;58903;47.210;8.618;2023-05-25T00:13:04;94267.59;;;26.32;45.06
71194;BME280;58903;47.210;8.618;2023-05-25T00:15:34;94265.59;;;26.33;44.67
71194;BME280;58903;47.210;8.618;2023-05-25T00:18:01;94262.63;;;26.31;44.87
71194;BME280;58903;47.210;8.618;2023-05-25T00:20:31;94270.59;;;26.34;44.48
71194;BME280;58903;47.210;8.618;2023-05-25T00:22:58;94265.81;;;26.35;44.43
71194;BME280;58903;47.210;8.618;2023-05-25T00:25:24;94263.88;;;26.30;44.97
71194;BME280;58903;47.210;8.618;2023-05-25T00:27:52;94264.84;;;26.32;44.18
71194;BME280;58903;47.210;8.618;2023-05-25T00:30:18;94264.13;;;26.32;44.21
71194;BME280;58903;47.210;8.618;2023-05-25T00:32:44;94269.88;;;26.34;44.65
71194;BME280;58903;47.210;8.618;2023-05-25T00:35:12;94271.88;;;26.33;44.41
71194;BME280;58903;47.210;8.618;2023-05-25T00:37:38;94269.09;;;26.33;44.85
71194;BME280;58903;47.210;8.618;2023-05-25T00:40:15;94264.63;;;26.30;44.47
71194;BME280;58903;47.210;8.618;2023-05-25T00:42:46;94258.59;;;26.32;44.22
71194;BME280;58903;47.210;8.618;2023-05-25T00:45:16;94259.84;;;26.31;44.78
71194;BME280;58903;47.210;8.618;2023-05-25T00:47:43;94258.34;;;26.30;44.39
71194;BME280;58903;47.210;8.618;2023-05-25T00:50:13;94256.13;;;26.28;44.62
71194;BME280;58903;47.210;8.618;2023-05-25T00:52:42;94266.13;;;26.31;44.43
71194;BME280;58903;47.210;8.618;2023-05-25T00:55:15;94258.34;;;26.30;44.17
71194;BME280;58903;47.210;8.618;2023-05-25T00:57:48;94256.88;;;26.29;44.71
71194;BME280;58903;47.210;8.618;2023-05-25T01:00:19;94249.84;;;26.28;44.92
71194;BME280;58903;47.210;8.618;2023-05-25T01:02:56;94259.63;;;26.29;44.39
71194;BME280;58903;47.210;8.618;2023-05-25T01:05:30;94251.41;;;26.23;44.94
71194;BME280;58903;47.210;8.618;2023-05-25T01:08:07;94259.41;;;26.27;44.14
71194;BME280;58903;47.210;8.618;2023-05-25T01:10:38;94260.66;;;26.26;44.99
71194;BME280;58903;47.210;8.618;2023-05-25T01:13:08;94258.13;;;26.28;44.48
71194;BME280;58903;47.210;8.618;2023-05-25T01:15:39;94264.91;;;26.27;44.74
71194;BME280;58903;47.210;8.618;2023-05-25T01:18:05;94255.44;;;26.22;44.26
71194;BME280;58903;47.210;8.618;2023-05-25T01:20:34;94263.63;;;26.28;44.48
71194;BME280;58903;47.210;8.618;2023-05-25T01:23:15;94257.19;;;26.25;44.60
71194;BME280;58903;47.210;8.618;2023-05-25T01:25:50;94254.91;;;26.24;45.00
71194;BME280;58903;47.210;8.618;2023-05-25T01:28:26;94259.41;;;26.27;44.61
71194;BME280;58903;47.210;8.618;2023-05-25T01:30:59;94255.16;;;26.26;44.82
71194;BME280;58903;47.210;8.618;2023-05-25T01:33:32;94248.91;;;26.25;44.88
71194;BME280;58903;47.210;8.618;2023-05-25T01:36:01;94256.66;;;26.27;45.07
71194;BME280;58903;47.210;8.618;2023-05-25T01:38:30;94238.16;;;26.22;44.69
71194;BME280;58903;47.210;8.618;2023-05-25T01:41:07;94249.63;;;26.26;44.08
71194;BME280;58903;47.210;8.618;2023-05-25T01:43:43;94246.88;;;26.26;44.75
71194;BME280;58903;47.210;8.618;2023-05-25T01:46:38;94245.41;;;26.25;44.85
71194;BME280;58903;47.210;8.618;2023-05-25T01:49:39;94246.16;;;26.25;44.75
71194;BME280;58903;47.210;8.618;2023-05-25T01:52:22;94245.41;;;26.25;44.58
71194;BME280;58903;47.210;8.618;2023-05-25T01:55:17;94241.88;;;26.24;44.08
71194;BME280;58903;47.210;8.618;2023-05-25T01:57:55;94245.91;;;26.23;44.34
71194;BME280;58903;47.210;8.618;2023-05-25T02:00:33;94255.44;;;26.22;44.88
71194;BME280;58903;47.210;8.618;2023-05-25T02:03:05;94253.44;;;26.23;44.16
71194;BME280;58903;47.210;8.618;2023-05-25T02:05:34;94255.44;;;26.22;44.30
71194;BME280;58903;47.210;8.618;2023-05-25T02:08:01;94250.47;;;26.21;44.70
71194;BME280;58903;47.210;8.618;2023-05-25T02:10:32;94243.66;;;26.22;44.51
71194;BME280;58903;47.210;8.618;2023-05-25T02:13:05;94228.91;;;26.19;44.23
71194;BME280;58903;47.210;8.618;2023-05-25T02:15:33;94232.63;;;26.22;44.19
71194;BME280;58903;47.210;8.618;2023-05-25T02:18:01;94233.69;;;26.19;44.78
71194;BME280;58903;47.210;8.618;2023-05-25T02:20:41;94232.72;;;26.16;44.61
71194;BME280;58903;47.210;8.618;2023-05-25T02:23:19;94224.94;;;26.14;44.49
71194;BME280;58903;47.210;8.618;2023-05-25T02:25:45;94230.19;;;26.18;45.19
71194;BME280;58903;47.210;8.618;2023-05-25T02:28:14;94233.69;;;26.19;44.31
71194;BME280;58903;47.210;8.618;2023-05-25T02:30:43;94231.22;;;26.15;44.72
71194;BME280;58903;47.210;8.618;2023-05-25T02:33:11;94230.94;;;26.19;44.99
71194;BME280;58903;47.210;8.618;2023-05-25T02:35:55;94230.19;;;26.18;44.44
71194;BME280;58903;47.210;8.618;2023-05-25T02:38:23;94229.19;;;26.15;44.80
71194;BME280;58903;47.210;8.618;2023-05-25T02:40:49;94222.41;;;26.16;44.12
71194;BME280;58903;47.210;8.618;2023-05-25T02:43:19;94223.69;;;26.15;44.31
71194;BME280;58903;47.210;8.618;2023-05-25T02:45:47;94227.94;;;26.16;44.37
71194;BME280;58903;47.210;8.618;2023-05-25T02:48:13;94218.19;;;26.15;44.58
71194;BME280;58903;47.210;8.618;2023-05-25T02:50:46;94216.66;;;26.14;44.66
71194;BME280;58903;47.210;8.618;2023-05-25T02:53:24;94217.94;;;26.13;44.96
71194;BME280;58903;47.210;8.618;2023-05-25T02:55:58;94218.47;;;26.12;44.42
71194;BME280;58903;47.210;8.618;2023-05-25T02:58:29;94224.22;;;26.14;44.33
71194;BME280;58903;47.210;8.618;2023-05-25T03:00:55;94220.72;;;26.13;44.56
71194;BME280;58903;47.210;8.618;2023-05-25T03:03:31;94224.72;;;26.12;44.11
71194;BME280;58903;47.210;8.618;2023-05-25T03:06:08;94222.94;;;26.15;44.47
71194;BME280;58903;47.210;8.618;2023-05-25T03:08:42;94230.22;;;26.12;45.28
71194;BME280;58903;47.210;8.618;2023-05-25T03:11:09;94229.72;;;26.14;44.47
71194;BME280;58903;47.210;8.618;2023-05-25T03:13:47;94228.97;;;26.13;44.56
71194;BME280;58903;47.210;8.618;2023-05-25T03:16:13;94231.28;;;26.09;44.67
71194;BME280;58903;47.210;8.618;2023-05-25T03:18:42;94237.03;;;26.11;44.63
71194;BME280;58903;47.210;8.618;2023-05-25T03:21:17;94236.50;;;26.13;44.10
71194;BME280;58903;47.210;8.618;2023-05-25T03:23:50;94235.97;;;26.14;44.90
71194;BME280;58903;47.210;8.618;2023-05-25T03:26:23;94236.50;;;26.13;44.21
71194;BME280;58903;47.210;8.618;2023-05-25T03:28:56;94236.78;;;26.09;44.21
71194;BME280;58903;47.210;8.618;2023-05-25T03:31:55;94234.25;;;26.11;44.72
71194;BME280;58903;47.210;8.618;2023-05-25T03:34:24;94235.75;;;26.12;44.88
71194;BME280;58903;47.210;8.618;2023-05-25T03:36:52;94232.75;;;26.10;44.50
71194;BME280;58903;47.210;8.618;2023-05-25T03:39:21;94232.75;;;26.10;44.98
71194;BME280;58903;47.210;8.618;2023-05-25T03:41:58;94241.03;;;26.10;44.35
71194;BME280;58903;47.210;8.618;2023-05-25T03:44:23;94227.78;;;26.09;44.58
71194;BME280;58903;47.210;8.618;2023-05-25T03:46:50;94237.53;;;26.10;44.15
71194;BME280;58903;47.210;8.618;2023-05-25T03:49:25;94233.78;;;26.07;44.09
71194;BME280;58903;47.210;8.618;2023-05-25T03:51:52;94242.31;;;26.09;44.44
71194;BME280;58903;47.210;8.618;2023-05-25T03:54:21;94233.28;;;26.09;44.74
71194;BME280;58903;47.210;8.618;2023-05-25T03:56:47;94240.28;;;26.10;44.30
71194;BME280;58903;47.210;8.618;2023-05-25T03:59:12;94226.75;;;26.06;44.79
71194;BME280;58903;47.210;8.618;2023-05-25T04:01:38;94225.50;;;26.07;44.58
71194;BME280;58903;47.210;8.618;2023-05-25T04:04:13;94222.00;;;26.07;44.50
71194;BME280;58903;47.210;8.618;2023-05-25T04:06:51;94229.78;;;26.08;44.03
71194;BME280;58903;47.210;8.618;2023-05-25T04:09:17;94241.28;;;26.07;44.61
71194;BME280;58903;47.210;8.618;2023-05-25T04:11:44;94245.53;;;26.08;44.21
71194;BME280;58903;47.210;8.618;2023-05-25T04:14:11;94237.78;;;26.06;44.08
71194;BME280;58903;47.210;8.618;2023-05-25T04:16:37;94235.56;;;26.05;44.02
71194;BME280;58903;47.210;8.618;2023-05-25T04:19:07;94243.31;;;26.06;44.07
71194;BME280;58903;47.210;8.618;2023-05-25T04:21:33;94248.81;;;26.06;44.79
71194;BME280;58903;47.210;8.618;2023-05-25T04:24:04;94249.56;;;26.07;44.72
71194;BME280;58903;47.210;8.618;2023-05-25T04:26:39;94248.81;;;26.06;44.85
71194;BME280;58903;47.210;8.618;2023-05-25T04:29:12;94242.09;;;26.02;44.64
71194;BME280;58903;47.210;8.618;2023-05-25T04:32:11;94248.06;;;26.06;44.53
71194;BME280;58903;47.210;8.618;2023-05-25T04:34:51;94256.09;;;26.04;44.71
71194;BME280;58903;47.210;8.618;2023-05-25T04:37:20;94246.59;;;26.05;44.86
71194;BME280;58903;47.210;8.618;2023-05-25T04:40:19;94259.63;;;26.04;44.98
71194;BME280;58903;47.210;8.618;2023-05-25T04:42:54;94250.59;;;26.04;44.41
71194;BME280;58903;47.210;8.618;2023-05-25T04:48:50;94264.13;;;26.02;45.54
71194;BME280;58903;47.210;8.618;2023-05-25T04:51:19;94260.88;;;26.03;45.19
71194;BME280;58903;47.210;8.618;2023-05-25T04:53:49;94260.88;;;26.03;44.97
71194;BME280;58903;47.210;8.618;2023-05-25T04:56:25;94267.88;;;26.04;44.42
71194;BME280;58903;47.210;8.618;2023-05-25T04:58:52;94273.41;;;26.04;45.05
71194;BME280;58903;47.210;8.618;2023-05-25T05:01:21;94272.41;;;26.02;45.30
71194;BME280;58903;47.210;8.618;2023-05-25T05:04:13;94286.19;;;26.02;45.30
71194;BME280;58903;47.210;8.618;2023-05-25T05:06:53;94286.94;;;26.02;44.80
71194;BME280;58903;47.210;8.618;2023-05-25T05:09:38;94279.44;;;26.03;44.89
71194;BME280;58903;47.210;8.618;2023-05-25T05:12:16;94286.94;;;26.02;44.62
71194;BME280;58903;47.210;8.618;2023-05-25T05:15:01;94282.97;;;25.98;44.85
71194;BME280;58903;47.210;8.618;2023-05-25T05:17:48;94287.25;;;25.99;45.34
71194;BME280;58903;47.210;8.618;2023-05-25T05:20:16;94292.75;;;25.99;45.64
71194;BME280;58903;47.210;8.618;2023-05-25T05:22:53;94286.19;;;26.02;45.25
71194;BME280;58903;47.210;8.618;2023-05-25T05:25:19;94295.97;;;26.03;44.87
71194;BME280;58903;47.210;8.618;2023-05-25T05:28:11;94291.19;;;26.03;45.58
71194;BME280;58903;47.210;8.618;2023-05-25T05:30:45;94292.97;;;26.01;45.28
71194;BME280;58903;47.210;8.618;2023-05-25T05:33:14;94296.47;;;26.01;45.48
71194;BME280;58903;47.210;8.618;2023-05-25T05:36:13;94291.69;;;26.02;44.90
71194;BME280;58903;47.210;8.618;2023-05-25T05:38:41;94295.22;;;26.02;44.72
71194;BME280;58903;47.210;8.618;2023-05-25T05:41:20;94308.25;;;26.02;44.74
71194;BME280;58903;47.210;8.618;2023-05-25T05:43:57;94309.28;;;25.99;45.22
71194;BME280;58903;47.210;8.618;2023-05-25T05:46:24;94318.28;;;25.99;45.31
71194;BME280;58903;47.210;8.618;2023-05-25T05:52:08;94315.53;;;25.99;44.38
71194;BME280;58903;47.210;8.618;2023-05-25T05:54:36;94314.03;;;25.98;44.82
71194;BME280;58903;47.210;8.618;2023-05-25T05:57:04;94319.56;;;25.98;45.05
71194;BME280;58903;47.210;8.618;2023-05-25T05:59:56;94317.03;;;26.00;44.43
71194;BME280;58903;47.210;8.618;2023-05-25T06:02:33;94314.03;;;25.98;45.01
71194;BME280;58903;47.210;8.618;2023-05-25T06:04:59;94328.81;;;26.01;45.30
71194;BME280;58903;47.210;8.618;2023-05-25T06:07:26;94318.06;;;25.97;44.43
71194;BME280;58903;47.210;8.618;2023-05-25T06:10:14;94324.78;;;26.02;44.41
71194;BME280;58903;47.210;8.618;2023-05-25T06:13:17;94333.03;;;26.02;45.27
71194;BME280;58903;47.210;8.618;2023-05-25T06:15:47;94331.56;;;26.01;44.90
71194;BME280;58903;47.210;8.618;2023-05-25T06:18:45;94327.81;;;25.98;45.15
71194;BME280;58903;47.210;8.618;2023-05-25T06:24:32;94319.56;;;25.98;44.59
71194;BME280;58903;47.210;8.618;2023-05-25T06:27:18;94324.09;;;25.96;45.16
71194;BME280;58903;47.210;8.618;2023-05-25T06:30:01;94330.84;;;25.95;44.96
71194;BME280;58903;47.210;8.618;2023-05-25T06:32:46;94328.63;;;25.93;44.56
71194;BME280;58903;47.210;8.618;2023-05-25T06:35:24;94329.59;;;25.96;45.18
71194;BME280;58903;47.210;8.618;2023-05-25T06:38:02;94342.63;;;25.95;45.12
71194;BME280;58903;47.210;8.618;2023-05-25T06:40:38;94347.88;;;25.99;44.45
71194;BME280;58903;47.210;8.618;2023-05-25T06:43:15;94347.13;;;25.98;44.53
71194;BME280;58903;47.210;8.618;2023-05-25T06:45:52;94340.84;;;25.98;45.21
71194;BME280;58903;47.210;8.618;2023-05-25T06:48:18;94341.59;;;25.98;45.10
71194;BME280;58903;47.210;8.618;2023-05-25T06:50:59;94345.13;;;25.99;44.93
71194;BME280;58903;47.210;8.618;2023-05-25T06:53:45;94344.13;;;25.96;44.67
71194;BME280;58903;47.210;8.618;2023-05-25T06:56:36;94345.63;;;25.97;45.48
71194;BME280;58903;47.210;8.618;2023-05-25T06:59:13;94333.84;;;25.97;45.39
71194;BME280;58903;47.210;8.618;2023-05-25T07:01:44;94335.63;;;25.94;44.75
71194;BME280;58903;47.210;8.618;2023-05-25T07:04:13;94346.66;;;25.94;44.92
71194;BME280;58903;47.210;8.618;2023-05-25T07:07:00;94340.38;;;25.94;44.83
71194;BME280;58903;47.210;8.618;2023-05-25T07:09:36;94353.41;;;25.93;45.47
71194;BME280;58903;47.210;8.618;2023-05-25T07:12:17;94354.41;;;25.96;45.18
71194;BME280;58903;47.210;8.618;2023-05-25T07:14:52;94350.66;;;25.93;45.58
71194;BME280;58903;47.210;8.618;2023-05-25T07:17:20;94366.91;;;25.97;44.82
71194;BME280;58903;47.210;8.618;2023-05-25T07:20:05;94364.91;;;25.97;44.83
71194;BME280;58903;47.210;8.618;2023-05-25T07:22:34;94369.16;;;25.98;45.41
71194;BME280;58903;47.210;8.618;2023-05-25T07:25:00;94364.91;;;25.97;44.88
71194;BME280;58903;47.210;8.618;2023-05-25T07:27:29;94367.16;;;25.99;45.43
71194;BME280;58903;47.210;8.618;2023-05-25T07:29:57;94364.66;;;25.95;45.45
71194;BME280;58903;47.210;8.618;2023-05-25T07:32:25;94374.69;;;25.98;45.56
71194;BME280;58903;47.210;8.618;2023-05-25T07:34:55;94371.69;;;25.96;45.18
71194;BME280;58903;47.210;8.618;2023-05-25T07:37:21;94376.44;;;25.96;45.83
71194;BME280;58903;47.210;8.618;2023-05-25T07:39:47;94369.66;;;25.97;44.95
71194;BME280;58903;47.210;8.618;2023-05-25T07:42:15;94378.69;;;25.97;45.47
71194;BME280;58903;47.210;8.618;2023-05-25T07:45:05;94382.19;;;25.98;45.15
71194;BME280;58903;47.210;8.618;2023-05-25T07:47:40;94375.69;;;25.95;45.85
71194;BME280;58903;47.210;8.618;2023-05-25T07:50:33;94377.66;;;26.00;45.73
71194;BME280;58903;47.210;8.618;2023-05-25T07:53:00;94375.66;;;26.01;45.45
71194;BME280;58903;47.210;8.618;2023-05-25T07:55:39;94375.94;;;25.97;45.18
71194;BME280;58903;47.210;8.618;2023-05-25T07:58:31;94386.47;;;25.99;45.65
71194;BME280;58903;47.210;8.618;2023-05-25T08:01:07;94383.19;;;26.00;45.50
71194;BME280;58903;47.210;8.618;2023-05-25T08:03:34;94378.41;;;26.01;45.28
71194;BME280;58903;47.210;8.618;2023-05-25T08:06:14;94395.44;;;25.99;45.87
71194;BME280;58903;47.210;8.618;2023-05-25T08:08:42;94402.25;;;25.98;45.89
71194;BME280;58903;47.210;8.618;2023-05-25T08:11:23;94410.75;;;26.00;45.68
71194;BME280;58903;47.210;8.618;2023-05-25T08:14:04;94405.00;;;25.98;45.73
71194;BME280;58903;47.210;8.618;2023-05-25T08:17:01;94409.22;;;25.99;45.42
71194;BME280;58903;47.210;8.618;2023-05-25T08:19:39;94412.97;;;26.02;45.89
71194;BME280;58903;47.210;8.618;2023-05-25T08:22:14;94407.47;;;26.02;45.87
71194;BME280;58903;47.210;8.618;2023-05-25T08:25:16;94417.97;;;26.03;45.14
71194;BME280;58903;47.210;8.618;2023-05-25T08:27:45;94421.25;;;26.02;45.95
71194;BME280;58903;47.210;8.618;2023-05-25T08:30:21;94417.00;;;26.01;45.83
71194;BME280;58903;47.210;8.618;2023-05-25T08:32:47;94427.78;;;25.99;45.78
71194;BME280;58903;47.210;8.618;2023-05-25T08:35:24;94424.06;;;25.96;46.06
71194;BME280;58903;47.210;8.618;2023-05-25T08:37:50;94431.28;;;25.99;46.11
71194;BME280;58903;47.210;8.618;2023-05-25T08:40:21;94436.06;;;25.99;45.78
71194;BME280;58903;47.210;8.618;2023-05-25T08:43:06;94449.84;;;25.99;45.34
71194;BME280;58903;47.210;8.618;2023-05-25T08:49:01;94446.81;;;26.02;45.90
71194;BME280;58903;47.210;8.618;2023-05-25T08:51:46;94459.31;;;26.03;45.95
71194;BME280;58903;47.210;8.618;2023-05-25T08:54:17;94455.81;;;26.03;45.53
71194;BME280;58903;47.210;8.618;2023-05-25T08:56:49;94453.06;;;26.03;45.54
71194;BME280;58903;47.210;8.618;2023-05-25T09:01:55;94451.56;;;26.02;45.75
71194;BME280;58903;47.210;8.618;2023-05-25T09:04:25;94446.03;;;26.02;45.96
71194;BME280;58903;47.210;8.618;2023-05-25T09:06:51;94440.53;;;26.02;45.75
71194;BME280;58903;47.210;8.618;2023-05-25T09:09:24;94449.03;;;26.04;45.49
71194;BME280;58903;47.210;8.618;2023-05-25T09:11:52;94456.06;;;26.05;46.04
71194;BME280;58903;47.210;8.618;2023-05-25T09:14:49;94463.34;;;26.02;45.29
71194;BME280;58903;47.210;8.618;2023-05-25T09:17:16;94461.09;;;26.01;46.11
71194;BME280;58903;47.210;8.618;2023-05-25T09:19:45;94457.34;;;25.98;45.75
71194;BME280;58903;47.210;8.618;2023-05-25T09:22:22;94471.38;;;26.00;45.54
71194;BME280;58903;47.210;8.618;2023-05-25T09:25:05;94481.63;;;26.05;45.93
71194;BME280;58903;47.210;8.618;2023-05-25T09:27:44;94492.13;;;26.07;45.27
71194;BME280;58903;47.210;8.618;2023-05-25T09:30:13;94494.66;;;26.05;45.55
71194;BME280;58903;47.210;8.618;2023-05-25T09:33:08;94496.38;;;26.08;46.08
71194;BME280;58903;47.210;8.618;2023-05-25T09:35:52;94501.88;;;26.08;45.46
71194;BME280;58903;47.210;8.618;2023-05-25T09:38:35;94489.38;;;26.07;45.54
71194;BME280;58903;47.210;8.618;2023-05-25T09:41:03;94496.13;;;26.06;45.51
71194;BME280;58903;47.210;8.618;2023-05-25T09:43:39;94497.16;;;26.08;45.66
71194;BME280;58903;47.210;8.618;2023-05-25T09:46:06;94502.16;;;26.04;46.08
71194;BME280;58903;47.210;8.618;2023-05-25T09:48:43;94507.91;;;26.06;45.48
71194;BME280;58903;47.210;8.618;2023-05-25T09:51:27;94510.66;;;26.06;45.63
71194;BME280;58903;47.210;8.618;2023-05-25T09:54:14;94511.94;;;26.05;45.58
71194;BME280;58903;47.210;8.618;2023-05-25T09:56:44;94512.66;;;26.06;45.89
71194;BME280;58903;47.210;8.618;2023-05-25T09:59:14;94516.94;;;26.07;45.73
71194;BME280;58903;47.210;8.618;2023-05-25T10:01:42;94517.44;;;26.05;45.43
71194;BME280;58903;47.210;8.618;2023-05-25T10:04:15;94514.94;;;26.07;46.31
71194;BME280;58903;47.210;8.618;2023-05-25T10:07:10;94515.66;;;26.08;45.96
71194;BME280;58903;47.210;8.618;2023-05-25T10:09:57;94528.22;;;26.09;45.38
71194;BME280;58903;47.210;8.618;2023-05-25T10:12:25;94536.22;;;26.07;46.39
71194;BME280;58903;47.210;8.618;2023-05-25T10:15:12;94537.72;;;26.08;46.16
71194;BME280;58903;47.210;8.618;2023-05-25T10:17:57;94539.50;;;26.05;45.99
71194;BME280;58903;47.210;8.618;2023-05-25T10:20:46;94545.75;;;26.06;46.29
71194;BME280;58903;47.210;8.618;2023-05-25T10:23:53;94547.25;;;26.07;45.56
71194;BME280;58903;47.210;8.618;2023-05-25T10:26:41;94555.03;;;26.08;45.60
71194;BME280;58903;47.210;8.618;2023-05-25T10:29:20;94550.00;;;26.07;45.65
71194;BME280;58903;47.210;8.618;2023-05-25T10:32:16;94551.03;;;26.09;46.23
71194;BME280;58903;47.210;8.618;2023-05-25T10:35:08;94556.53;;;26.09;46.15
71194;BME280;58903;47.210;8.618;2023-05-25T10:37:52;94562.06;;;26.09;46.34
71194;BME280;58903;47.210;8.618;2023-05-25T10:43:36;94562.06;;;26.09;45.74
71194;BME280;58903;47.210;8.618;2023-05-25T10:49:56;94557.00;;;26.08;46.73
71194;BME280;58903;47.210;8.618;2023-05-25T10:52:29;94566.06;;;26.08;46.42
71194;BME280;58903;47.210;8.618;2023-05-25T10:54:57;94570.06;;;26.07;46.56
71194;BME280;58903;47.210;8.618;2023-05-25T10:57:29;94566.31;;;26.05;46.71
71194;BME280;58903;47.210;8.618;2023-05-25T11:04:22;94568.31;;;26.10;46.85
71194;BME280;58903;47.210;8.618;2023-05-25T11:10:00;94565.53;;;26.15;46.86
71194;BME280;58903;47.210;8.618;2023-05-25T11:12:26;94567.00;;;26.16;46.34
71194;BME280;58903;47.210;8.618;2023-05-25T11:15:13;94562.78;;;26.15;46.06
71194;BME280;58903;47.210;8.618;2023-05-25T11:18:08;94568.53;;;26.17;46.03
71194;BME280;58903;47.210;8.618;2023-05-25T11:21:13;94571.78;;;26.16;46.02
71194;BME280;58903;47.210;8.618;2023-05-25T11:24:19;94574.50;;;26.22;45.82
71194;BME280;58903;47.210;8.618;2023-05-25T11:26:55;94574.50;;;26.22;45.79
71194;BME280;58903;47.210;8.618;2023-05-25T11:29:23;94575.25;;;26.22;46.06
71194;BME280;58903;47.210;8.618;2023-05-25T11:32:03;94576.00;;;26.23;46.61
71194;BME280;58903;47.210;8.618;2023-05-25T11:34:31;94577.03;;;26.20;46.03
71194;BME280;58903;47.210;8.618;2023-05-25T11:37:10;94570.50;;;26.23;46.46
71194;BME280;58903;47.210;8.618;2023-05-25T11:39:53;94564.22;;;26.22;46.01
71194;BME280;58903;47.210;8.618;2023-05-25T11:42:36;94561.47;;;26.22;45.63
71194;BME280;58903;47.210;8.618;2023-05-25T11:45:13;94574.97;;;26.26;45.69
71194;BME280;58903;47.210;8.618;2023-05-25T11:47:48;94565.47;;;26.27;46.49
71194;BME280;58903;47.210;8.618;2023-05-25T11:50:16;94556.94;;;26.25;45.68
71194;BME280;58903;47.210;8.618;2023-05-25T11:52:48;94554.69;;;26.23;46.20
71194;BME280;58903;47.210;8.618;2023-05-25T11:55:47;94557.94;;;26.27;46.00
71194;BME280;58903;47.210;8.618;2023-05-25T11:58:38;94557.44;;;26.29;46.22
71194;BME280;58903;47.210;8.618;2023-05-25T12:01:44;94560.94;;;26.29;45.56
71194;BME280;58903;47.210;8.618;2023-05-25T12:04:29;94564.19;;;26.28;45.92
71194;BME280;58903;47.210;8.618;2023-05-25T12:07:22;94568.44;;;26.29;46.18
71194;BME280;58903;47.210;8.618;2023-05-25T12:10:24;94563.22;;;26.25;46.07
71194;BME280;58903;47.210;8.618;2023-05-25T12:12:52;94562.69;;;26.27;45.82
71194;BME280;58903;47.210;8.618;2023-05-25T12:15:38;94566.44;;;26.29;45.83
71194;BME280;58903;47.210;8.618;2023-05-25T12:18:36;94576.97;;;26.31;45.59
71194;BME280;58903;47.210;8.618;2023-05-25T12:21:41;94579.72;;;26.31;46.10
71194;BME280;58903;47.210;8.618;2023-05-25T12:24:31;94569.69;;;26.33;46.46
71194;BME280;58903;47.210;8.618;2023-05-25T12:27:30;94571.16;;;26.34;46.30
71194;BME280;58903;47.210;8.618;2023-05-25T12:30:26;94569.69;;;26.33;45.77
71194;BME280;58903;47.210;8.618;2023-05-25T12:33:00;94565.94;;;26.31;46.19
71194;BME280;58903;47.210;8.618;2023-05-25T12:35:51;94571.16;;;26.34;46.27
71194;BME280;58903;47.210;8.618;2023-05-25T12:38:37;94565.16;;;26.36;45.86
71194;BME280;58903;47.210;8.618;2023-05-25T12:41:13;94560.88;;;26.35;46.32
71194;BME280;58903;47.210;8.618;2023-05-25T12:43:57;94561.34;;;26.39;45.88
71194;BME280;58903;47.210;8.618;2023-05-25T12:46:50;94565.38;;;26.38;45.84
71194;BME280;58903;47.210;8.618;2023-05-25T12:49:30;94568.38;;;26.40;45.74
71194;BME280;58903;47.210;8.618;2023-05-25T12:52:08;94560.59;;;26.38;46.01
71194;BME280;58903;47.210;8.618;2023-05-25T12:57:57;94558.38;;;26.37;46.06
71194;BME280;58903;47.210;8.618;2023-05-25T13:00:53;94563.63;;;26.40;45.95
71194;BME280;58903;47.210;8.618;2023-05-25T13:03:47;94568.38;;;26.40;45.98
71194;BME280;58903;47.210;8.618;2023-05-25T13:06:43;94564.88;;;26.39;46.71
71194;BME280;58903;47.210;8.618;2023-05-25T13:09:23;94564.88;;;26.39;46.25
71194;BME280;58903;47.210;8.618;2023-05-25T13:12:01;94564.63;;;26.37;46.40
71194;BME280;58903;47.210;8.618;2023-05-25T13:14:29;94575.38;;;26.41;45.89
71194;BME280;58903;47.210;8.618;2023-05-25T13:16:56;94569.13;;;26.40;46.40
71194;BME280;58903;47.210;8.618;2023-05-25T13:19:24;94573.09;;;26.45;46.04
71194;BME280;58903;47.210;8.618;2023-05-25T13:21:55;94577.59;;;26.48;45.59
71194;BME280;58903;47.210;8.618;2023-05-25T13:24:35;94574.09;;;26.47;46.01
71194;BME280;58903;47.210;8.618;2023-05-25T13:27:03;94565.56;;;26.45;45.96
71194;BME280;58903;47.210;8.618;2023-05-25T13:29:29;94569.84;;;26.46;46.36
71194;BME280;58903;47.210;8.618;2023-05-25T13:31:57;94583.34;;;26.50;45.76
71194;BME280;58903;47.210;8.618;2023-05-25T13:34:23;94576.59;;;26.51;45.68
71194;BME280;58903;47.210;8.618;2023-05-25T13:36:58;94576.59;;;26.51;45.88
71194;BME280;58903;47.210;8.618;2023-05-25T13:39:24;94571.06;;;26.51;45.99
71194;BME280;58903;47.210;8.618;2023-05-25T13:41:53;94578.31;;;26.54;45.44
71194;BME280;58903;47.210;8.618;2023-05-25T13:44:21;94567.56;;;26.50;46.15
71194;BME280;58903;47.210;8.618;2023-05-25T13:46:47;94572.06;;;26.53;45.77
71194;BME280;58903;47.210;8.618;2023-05-25T13:49:14;94577.56;;;26.53;45.75
71194;BME280;58903;47.210;8.618;2023-05-25T13:51:47;94570.78;;;26.54;46.06
71194;BME280;58903;47.210;8.618;2023-05-25T13:54:23;94576.81;;;26.53;45.05
71194;BME280;58903;47.210;8.618;2023-05-25T13:56:49;94578.81;;;26.52;45.92
71194;BME280;58903;47.210;8.618;2023-05-25T13:59:16;94575.06;;;26.50;45.54
71194;BME280;58903;47.210;8.618;2023-05-25T14:01:52;94583.13;;;26.48;45.67
71194;BME280;58903;47.210;8.618;2023-05-25T14:04:21;94583.88;;;26.48;45.63
71194;BME280;58903;47.210;8.618;2023-05-25T14:06:53;94587.63;;;26.51;45.27
71194;BME280;58903;47.210;8.618;2023-05-25T14:09:22;94580.06;;;26.51;46.10
71194;BME280;58903;47.210;8.618;2023-05-25T14:11:57;94589.09;;;26.52;45.81
71194;BME280;58903;47.210;8.618;2023-05-25T14:14:28;94583.81;;;26.54;45.96
71194;BME280;58903;47.210;8.618;2023-05-25T14:17:26;94583.09;;;26.53;45.27
71194;BME280;58903;47.210;8.618;2023-05-25T14:19:51;94581.59;;;26.52;45.28